sensor_id;sensor_type;location;lat;lon;timestamp;P1;durP1;ratioP1;P2;durP2;ratioP2
30617;SDS011;17384;51.214;9.202;2022-12-10T00:00:37;56.60;;;27.98;;
30617;SDS011;17384;51.214;9.202;2022-12-10T00:03:02;57.58;;;29.77;;
30617;SDS011;17384;51.214;9.202;2022-12-10T00:05:28;54.40;;;28.45;;
30617;SDS011;17384;51.214;9.202;2022-12-10T00:07:53;61.78;;;31.10;;
30617;SDS011;17384;51.214;9.202;2022-12-10T00:10:19;60.75;;;28.05;;
30617;SDS011;17384;51.214;9.202;2022-12-10T00:12:44;57.63;;;28.38;;
30617;SDS011;17384;51.214;9.202;2022-12-10T00:15:10;57.65;;;28.15;;
30617;SDS011;17384;51.214;9.202;2022-12-10T00:17:35;56.78;;;29.00;;
30617;SDS011;17384;51.214;9.202;2022-12-10T00:20:01;63.17;;;31.17;;
30617;SDS011;17384;51.214;9.202;2022-12-10T00:22:27;66.93;;;32.72;;
30617;SDS011;17384;51.214;9.202;2022-12-10T00:24:52;61.70;;;30.52;;
30617;SDS011;17384;51.214;9.202;2022-12-10T00:27:18;67.78;;;33.55;;
30617;SDS011;17384;51.214;9.202;2022-12-10T00:29:43;64.60;;;31.23;;
30617;SDS011;17384;51.214;9.202;2022-12-10T00:32:09;60.70;;;30.75;;
30617;SDS011;17384;51.214;9.202;2022-12-10T00:34:34;71.20;;;32.50;;
30617;SDS011;17384;51.214;9.202;2022-12-10T00:37:00;61.78;;;30.80;;
30617;SDS011;17384;51.214;9.202;2022-12-10T00:39:25;69.88;;;31.90;;
30617;SDS011;17384;51.214;9.202;2022-12-10T00:41:51;66.88;;;32.33;;
30617;SDS011;17384;51.214;9.202;2022-12-10T00:44:16;69.50;;;32.90;;
30617;SDS011;17384;51.214;9.202;2022-12-10T00:46:42;61.72;;;30.50;;
30617;SDS011;17384;51.214;9.202;2022-12-10T00:49:08;62.30;;;31.45;;
30617;SDS011;17384;51.214;9.202;2022-12-10T00:51:33;68.07;;;33.58;;
30617;SDS011;17384;51.214;9.202;2022-12-10T00:53:59;63.30;;;32.50;;
30617;SDS011;17384;51.214;9.202;2022-12-10T00:56:26;62.15;;;31.70;;
30617;SDS011;17384;51.214;9.202;2022-12-10T00:58:54;64.30;;;30.30;;
30617;SDS011;17384;51.214;9.202;2022-12-10T01:01:24;63.72;;;30.92;;
30617;SDS011;17384;51.214;9.202;2022-12-10T01:03:57;63.63;;;29.80;;
30617;SDS011;17384;51.214;9.202;2022-12-10T01:06:31;56.92;;;28.95;;
30617;SDS011;17384;51.214;9.202;2022-12-10T01:08:59;64.28;;;29.45;;
30617;SDS011;17384;51.214;9.202;2022-12-10T01:11:30;64.28;;;30.80;;
30617;SDS011;17384;51.214;9.202;2022-12-10T01:13:58;57.97;;;28.63;;
30617;SDS011;17384;51.214;9.202;2022-12-10T01:16:25;55.85;;;29.35;;
30617;SDS011;17384;51.214;9.202;2022-12-10T01:18:54;59.42;;;29.05;;
30617;SDS011;17384;51.214;9.202;2022-12-10T01:21:21;59.92;;;28.58;;
30617;SDS011;17384;51.214;9.202;2022-12-10T01:23:49;59.95;;;30.60;;
30617;SDS011;17384;51.214;9.202;2022-12-10T01:26:17;61.53;;;29.00;;
30617;SDS011;17384;51.214;9.202;2022-12-10T01:28:44;55.38;;;28.67;;
30617;SDS011;17384;51.214;9.202;2022-12-10T01:31:11;60.67;;;29.95;;
30617;SDS011;17384;51.214;9.202;2022-12-10T01:33:39;60.28;;;28.48;;
30617;SDS011;17384;51.214;9.202;2022-12-10T01:36:10;59.10;;;28.75;;
30617;SDS011;17384;51.214;9.202;2022-12-10T01:38:38;64.25;;;31.17;;
30617;SDS011;17384;51.214;9.202;2022-12-10T01:41:04;61.13;;;28.77;;
30617;SDS011;17384;51.214;9.202;2022-12-10T01:43:47;65.15;;;30.85;;
30617;SDS011;17384;51.214;9.202;2022-12-10T01:46:15;70.78;;;32.55;;
30617;SDS011;17384;51.214;9.202;2022-12-10T01:48:41;63.65;;;30.75;;
30617;SDS011;17384;51.214;9.202;2022-12-10T01:51:07;66.53;;;33.03;;
30617;SDS011;17384;51.214;9.202;2022-12-10T01:53:34;60.25;;;32.20;;
30617;SDS011;17384;51.214;9.202;2022-12-10T01:55:59;68.35;;;32.03;;
30617;SDS011;17384;51.214;9.202;2022-12-10T01:58:25;69.40;;;33.17;;
30617;SDS011;17384;51.214;9.202;2022-12-10T02:09:25;68.57;;;32.28;;
30617;SDS011;17384;51.214;9.202;2022-12-10T02:17:24;68.38;;;32.20;;
30617;SDS011;17384;51.214;9.202;2022-12-10T02:20:03;68.97;;;31.38;;
30617;SDS011;17384;51.214;9.202;2022-12-10T02:22:34;73.13;;;32.80;;
30617;SDS011;17384;51.214;9.202;2022-12-10T02:25:04;67.60;;;32.17;;
30617;SDS011;17384;51.214;9.202;2022-12-10T02:30:13;70.60;;;32.17;;
30617;SDS011;17384;51.214;9.202;2022-12-10T02:32:39;64.38;;;31.92;;
30617;SDS011;17384;51.214;9.202;2022-12-10T02:35:14;68.68;;;34.05;;
30617;SDS011;17384;51.214;9.202;2022-12-10T02:37:48;69.47;;;32.00;;
30617;SDS011;17384;51.214;9.202;2022-12-10T02:40:23;70.80;;;32.75;;
30617;SDS011;17384;51.214;9.202;2022-12-10T02:42:51;69.72;;;31.65;;
30617;SDS011;17384;51.214;9.202;2022-12-10T02:45:18;73.38;;;32.75;;
30617;SDS011;17384;51.214;9.202;2022-12-10T02:47:47;63.80;;;31.77;;
30617;SDS011;17384;51.214;9.202;2022-12-10T02:50:13;80.07;;;34.25;;
30617;SDS011;17384;51.214;9.202;2022-12-10T02:52:41;74.93;;;33.03;;
30617;SDS011;17384;51.214;9.202;2022-12-10T02:55:10;71.75;;;33.75;;
30617;SDS011;17384;51.214;9.202;2022-12-10T02:57:49;71.03;;;33.47;;
30617;SDS011;17384;51.214;9.202;2022-12-10T03:00:35;71.20;;;32.80;;
30617;SDS011;17384;51.214;9.202;2022-12-10T03:03:31;73.72;;;34.25;;
30617;SDS011;17384;51.214;9.202;2022-12-10T03:09:05;70.03;;;32.88;;
30617;SDS011;17384;51.214;9.202;2022-12-10T03:11:34;69.82;;;33.03;;
30617;SDS011;17384;51.214;9.202;2022-12-10T03:16:54;73.50;;;33.28;;
30617;SDS011;17384;51.214;9.202;2022-12-10T03:19:23;74.05;;;34.33;;
30617;SDS011;17384;51.214;9.202;2022-12-10T03:21:53;71.88;;;34.08;;
30617;SDS011;17384;51.214;9.202;2022-12-10T03:24:21;78.63;;;35.15;;
30617;SDS011;17384;51.214;9.202;2022-12-10T03:26:47;71.00;;;32.80;;
30617;SDS011;17384;51.214;9.202;2022-12-10T03:29:19;72.28;;;34.70;;
30617;SDS011;17384;51.214;9.202;2022-12-10T03:31:50;78.55;;;34.17;;
30617;SDS011;17384;51.214;9.202;2022-12-10T03:34:17;73.70;;;34.25;;
30617;SDS011;17384;51.214;9.202;2022-12-10T03:36:43;70.75;;;33.45;;
30617;SDS011;17384;51.214;9.202;2022-12-10T03:39:09;77.88;;;34.47;;
30617;SDS011;17384;51.214;9.202;2022-12-10T03:41:35;77.70;;;33.35;;
30617;SDS011;17384;51.214;9.202;2022-12-10T03:44:01;75.40;;;32.38;;
30617;SDS011;17384;51.214;9.202;2022-12-10T03:46:27;74.50;;;34.42;;
30617;SDS011;17384;51.214;9.202;2022-12-10T03:48:54;72.30;;;32.63;;
30617;SDS011;17384;51.214;9.202;2022-12-10T03:51:20;75.53;;;35.13;;
30617;SDS011;17384;51.214;9.202;2022-12-10T03:53:46;80.43;;;35.47;;
30617;SDS011;17384;51.214;9.202;2022-12-10T03:56:14;73.13;;;35.33;;
30617;SDS011;17384;51.214;9.202;2022-12-10T03:58:39;79.97;;;34.72;;
30617;SDS011;17384;51.214;9.202;2022-12-10T04:01:05;79.28;;;34.63;;
30617;SDS011;17384;51.214;9.202;2022-12-10T04:03:30;72.70;;;34.50;;
30617;SDS011;17384;51.214;9.202;2022-12-10T04:06:05;81.13;;;34.35;;
30617;SDS011;17384;51.214;9.202;2022-12-10T04:08:33;74.20;;;34.35;;
30617;SDS011;17384;51.214;9.202;2022-12-10T04:11:03;77.68;;;34.88;;
30617;SDS011;17384;51.214;9.202;2022-12-10T04:13:33;82.53;;;35.85;;
30617;SDS011;17384;51.214;9.202;2022-12-10T04:16:18;73.28;;;33.63;;
30617;SDS011;17384;51.214;9.202;2022-12-10T04:18:54;76.65;;;34.00;;
30617;SDS011;17384;51.214;9.202;2022-12-10T04:21:21;79.10;;;33.58;;
30617;SDS011;17384;51.214;9.202;2022-12-10T04:24:07;75.72;;;35.33;;
30617;SDS011;17384;51.214;9.202;2022-12-10T04:26:53;83.90;;;36.53;;
30617;SDS011;17384;51.214;9.202;2022-12-10T04:29:25;81.95;;;34.30;;
30617;SDS011;17384;51.214;9.202;2022-12-10T04:31:52;81.47;;;34.67;;
30617;SDS011;17384;51.214;9.202;2022-12-10T04:34:18;80.70;;;35.17;;
30617;SDS011;17384;51.214;9.202;2022-12-10T04:36:44;88.88;;;38.17;;
30617;SDS011;17384;51.214;9.202;2022-12-10T04:39:10;84.80;;;37.13;;
30617;SDS011;17384;51.214;9.202;2022-12-10T04:41:39;88.85;;;36.30;;
30617;SDS011;17384;51.214;9.202;2022-12-10T04:44:05;86.50;;;35.97;;
30617;SDS011;17384;51.214;9.202;2022-12-10T04:46:31;89.47;;;36.03;;
30617;SDS011;17384;51.214;9.202;2022-12-10T04:48:56;75.60;;;34.38;;
30617;SDS011;17384;51.214;9.202;2022-12-10T04:51:22;85.28;;;35.70;;
30617;SDS011;17384;51.214;9.202;2022-12-10T04:53:47;93.75;;;39.58;;
30617;SDS011;17384;51.214;9.202;2022-12-10T04:56:13;91.75;;;37.97;;
30617;SDS011;17384;51.214;9.202;2022-12-10T04:58:38;84.40;;;36.30;;
30617;SDS011;17384;51.214;9.202;2022-12-10T05:01:04;83.03;;;35.45;;
30617;SDS011;17384;51.214;9.202;2022-12-10T05:03:31;81.90;;;36.05;;
30617;SDS011;17384;51.214;9.202;2022-12-10T05:06:07;78.65;;;35.28;;
30617;SDS011;17384;51.214;9.202;2022-12-10T05:08:35;88.72;;;36.58;;
30617;SDS011;17384;51.214;9.202;2022-12-10T05:11:14;91.88;;;37.00;;
30617;SDS011;17384;51.214;9.202;2022-12-10T05:13:41;80.60;;;34.90;;
30617;SDS011;17384;51.214;9.202;2022-12-10T05:16:09;81.78;;;35.65;;
30617;SDS011;17384;51.214;9.202;2022-12-10T05:18:35;86.63;;;36.33;;
30617;SDS011;17384;51.214;9.202;2022-12-10T05:21:03;89.10;;;37.65;;
30617;SDS011;17384;51.214;9.202;2022-12-10T05:23:30;78.95;;;34.88;;
30617;SDS011;17384;51.214;9.202;2022-12-10T05:28:33;81.47;;;35.55;;
30617;SDS011;17384;51.214;9.202;2022-12-10T05:31:00;86.20;;;34.83;;
30617;SDS011;17384;51.214;9.202;2022-12-10T05:33:26;78.88;;;36.17;;
30617;SDS011;17384;51.214;9.202;2022-12-10T05:35:56;83.18;;;37.85;;
30617;SDS011;17384;51.214;9.202;2022-12-10T05:38:24;87.20;;;36.28;;
30617;SDS011;17384;51.214;9.202;2022-12-10T05:40:51;88.93;;;36.85;;
30617;SDS011;17384;51.214;9.202;2022-12-10T05:43:17;85.32;;;37.53;;
30617;SDS011;17384;51.214;9.202;2022-12-10T05:45:43;91.32;;;37.42;;
30617;SDS011;17384;51.214;9.202;2022-12-10T05:48:10;89.07;;;37.33;;
30617;SDS011;17384;51.214;9.202;2022-12-10T05:50:37;98.20;;;37.55;;
30617;SDS011;17384;51.214;9.202;2022-12-10T05:53:03;98.97;;;39.17;;
30617;SDS011;17384;51.214;9.202;2022-12-10T05:55:28;88.05;;;36.35;;
30617;SDS011;17384;51.214;9.202;2022-12-10T05:57:56;101.07;;;40.78;;
30617;SDS011;17384;51.214;9.202;2022-12-10T06:00:22;111.85;;;39.80;;
30617;SDS011;17384;51.214;9.202;2022-12-10T06:02:49;113.97;;;48.67;;
30617;SDS011;17384;51.214;9.202;2022-12-10T06:05:15;100.93;;;39.75;;
30617;SDS011;17384;51.214;9.202;2022-12-10T06:07:41;100.13;;;39.88;;
30617;SDS011;17384;51.214;9.202;2022-12-10T06:10:07;100.07;;;39.95;;
30617;SDS011;17384;51.214;9.202;2022-12-10T06:12:32;93.40;;;41.03;;
30617;SDS011;17384;51.214;9.202;2022-12-10T06:14:58;95.47;;;42.60;;
30617;SDS011;17384;51.214;9.202;2022-12-10T06:17:24;94.05;;;41.65;;
30617;SDS011;17384;51.214;9.202;2022-12-10T06:19:49;94.55;;;39.78;;
30617;SDS011;17384;51.214;9.202;2022-12-10T06:22:14;95.53;;;40.70;;
30617;SDS011;17384;51.214;9.202;2022-12-10T06:24:40;85.70;;;36.58;;
30617;SDS011;17384;51.214;9.202;2022-12-10T06:27:05;94.07;;;36.15;;
30617;SDS011;17384;51.214;9.202;2022-12-10T06:29:31;91.70;;;35.70;;
30617;SDS011;17384;51.214;9.202;2022-12-10T06:31:56;89.53;;;38.33;;
30617;SDS011;17384;51.214;9.202;2022-12-10T06:34:22;96.18;;;37.63;;
30617;SDS011;17384;51.214;9.202;2022-12-10T06:36:47;93.60;;;38.85;;
30617;SDS011;17384;51.214;9.202;2022-12-10T06:39:13;113.57;;;53.95;;
30617;SDS011;17384;51.214;9.202;2022-12-10T06:41:38;93.80;;;36.20;;
30617;SDS011;17384;51.214;9.202;2022-12-10T06:44:07;87.95;;;33.83;;
30617;SDS011;17384;51.214;9.202;2022-12-10T06:46:33;94.00;;;34.88;;
30617;SDS011;17384;51.214;9.202;2022-12-10T06:48:59;100.63;;;35.78;;
30617;SDS011;17384;51.214;9.202;2022-12-10T06:51:25;109.03;;;37.75;;
30617;SDS011;17384;51.214;9.202;2022-12-10T06:53:50;110.68;;;37.05;;
30617;SDS011;17384;51.214;9.202;2022-12-10T06:56:17;103.30;;;37.05;;
30617;SDS011;17384;51.214;9.202;2022-12-10T06:58:44;111.55;;;42.97;;
30617;SDS011;17384;51.214;9.202;2022-12-10T07:01:20;119.25;;;38.38;;
30617;SDS011;17384;51.214;9.202;2022-12-10T07:03:54;113.75;;;40.50;;
30617;SDS011;17384;51.214;9.202;2022-12-10T07:06:21;119.05;;;40.88;;
30617;SDS011;17384;51.214;9.202;2022-12-10T07:08:48;119.95;;;38.67;;
30617;SDS011;17384;51.214;9.202;2022-12-10T07:11:15;100.25;;;37.75;;
30617;SDS011;17384;51.214;9.202;2022-12-10T07:13:42;106.32;;;36.90;;
30617;SDS011;17384;51.214;9.202;2022-12-10T07:18:46;116.72;;;38.53;;
30617;SDS011;17384;51.214;9.202;2022-12-10T07:21:17;110.03;;;35.08;;
30617;SDS011;17384;51.214;9.202;2022-12-10T07:23:47;114.53;;;35.92;;
30617;SDS011;17384;51.214;9.202;2022-12-10T07:26:13;107.25;;;36.72;;
30617;SDS011;17384;51.214;9.202;2022-12-10T07:28:39;113.93;;;37.58;;
30617;SDS011;17384;51.214;9.202;2022-12-10T07:31:06;115.18;;;36.28;;
30617;SDS011;17384;51.214;9.202;2022-12-10T07:33:33;116.28;;;38.33;;
30617;SDS011;17384;51.214;9.202;2022-12-10T07:36:02;117.72;;;35.53;;
30617;SDS011;17384;51.214;9.202;2022-12-10T07:38:31;120.68;;;38.35;;
30617;SDS011;17384;51.214;9.202;2022-12-10T07:40:57;128.05;;;38.38;;
30617;SDS011;17384;51.214;9.202;2022-12-10T07:43:23;125.78;;;37.92;;
30617;SDS011;17384;51.214;9.202;2022-12-10T07:45:48;132.98;;;36.78;;
30617;SDS011;17384;51.214;9.202;2022-12-10T07:48:13;127.90;;;38.58;;
30617;SDS011;17384;51.214;9.202;2022-12-10T07:50:39;143.98;;;41.70;;
30617;SDS011;17384;51.214;9.202;2022-12-10T07:53:05;142.95;;;39.17;;
30617;SDS011;17384;51.214;9.202;2022-12-10T07:55:31;135.18;;;40.88;;
30617;SDS011;17384;51.214;9.202;2022-12-10T07:57:57;142.95;;;41.10;;
30617;SDS011;17384;51.214;9.202;2022-12-10T08:00:22;130.57;;;39.30;;
30617;SDS011;17384;51.214;9.202;2022-12-10T08:02:48;131.85;;;39.83;;
30617;SDS011;17384;51.214;9.202;2022-12-10T08:05:13;149.93;;;42.53;;
30617;SDS011;17384;51.214;9.202;2022-12-10T08:07:38;142.43;;;40.00;;
30617;SDS011;17384;51.214;9.202;2022-12-10T08:10:04;133.25;;;39.03;;
30617;SDS011;17384;51.214;9.202;2022-12-10T08:12:30;140.65;;;39.83;;
30617;SDS011;17384;51.214;9.202;2022-12-10T08:14:55;144.90;;;39.80;;
30617;SDS011;17384;51.214;9.202;2022-12-10T08:17:21;157.40;;;42.42;;
30617;SDS011;17384;51.214;9.202;2022-12-10T08:19:46;124.32;;;38.40;;
30617;SDS011;17384;51.214;9.202;2022-12-10T08:22:12;132.10;;;39.10;;
30617;SDS011;17384;51.214;9.202;2022-12-10T08:24:37;135.85;;;36.70;;
30617;SDS011;17384;51.214;9.202;2022-12-10T08:27:02;141.35;;;39.00;;
30617;SDS011;17384;51.214;9.202;2022-12-10T08:29:28;152.52;;;40.33;;
30617;SDS011;17384;51.214;9.202;2022-12-10T08:31:53;136.45;;;41.30;;
30617;SDS011;17384;51.214;9.202;2022-12-10T08:34:19;152.50;;;38.97;;
30617;SDS011;17384;51.214;9.202;2022-12-10T08:36:45;142.90;;;39.88;;
30617;SDS011;17384;51.214;9.202;2022-12-10T08:39:11;144.88;;;40.50;;
30617;SDS011;17384;51.214;9.202;2022-12-10T08:41:41;143.95;;;39.97;;
30617;SDS011;17384;51.214;9.202;2022-12-10T08:44:11;138.75;;;38.97;;
30617;SDS011;17384;51.214;9.202;2022-12-10T08:46:37;140.60;;;37.70;;
30617;SDS011;17384;51.214;9.202;2022-12-10T08:49:03;139.73;;;41.00;;
30617;SDS011;17384;51.214;9.202;2022-12-10T08:51:30;130.07;;;37.42;;
30617;SDS011;17384;51.214;9.202;2022-12-10T08:53:55;130.57;;;38.58;;
30617;SDS011;17384;51.214;9.202;2022-12-10T08:56:21;137.13;;;40.30;;
30617;SDS011;17384;51.214;9.202;2022-12-10T08:58:46;144.05;;;38.67;;
30617;SDS011;17384;51.214;9.202;2022-12-10T09:01:14;129.75;;;35.80;;
30617;SDS011;17384;51.214;9.202;2022-12-10T09:03:41;125.25;;;34.67;;
30617;SDS011;17384;51.214;9.202;2022-12-10T09:06:08;109.65;;;35.72;;
30617;SDS011;17384;51.214;9.202;2022-12-10T09:08:35;110.78;;;35.88;;
30617;SDS011;17384;51.214;9.202;2022-12-10T09:11:21;110.00;;;33.20;;
30617;SDS011;17384;51.214;9.202;2022-12-10T09:13:51;113.18;;;34.22;;
30617;SDS011;17384;51.214;9.202;2022-12-10T09:16:16;107.80;;;32.75;;
30617;SDS011;17384;51.214;9.202;2022-12-10T09:18:42;110.93;;;33.75;;
30617;SDS011;17384;51.214;9.202;2022-12-10T09:21:11;101.97;;;32.97;;
30617;SDS011;17384;51.214;9.202;2022-12-10T09:23:39;99.50;;;32.00;;
30617;SDS011;17384;51.214;9.202;2022-12-10T09:26:06;106.18;;;33.65;;
30617;SDS011;17384;51.214;9.202;2022-12-10T09:28:32;95.20;;;31.73;;
30617;SDS011;17384;51.214;9.202;2022-12-10T09:30:58;108.40;;;32.33;;
30617;SDS011;17384;51.214;9.202;2022-12-10T09:33:25;92.90;;;29.63;;
30617;SDS011;17384;51.214;9.202;2022-12-10T09:35:52;98.22;;;32.45;;
30617;SDS011;17384;51.214;9.202;2022-12-10T09:38:17;94.10;;;31.58;;
30617;SDS011;17384;51.214;9.202;2022-12-10T09:40:59;95.13;;;31.08;;
30617;SDS011;17384;51.214;9.202;2022-12-10T09:46:12;96.25;;;32.72;;
30617;SDS011;17384;51.214;9.202;2022-12-10T09:51:29;83.88;;;29.75;;
30617;SDS011;17384;51.214;9.202;2022-12-10T09:53:59;83.43;;;29.80;;
30617;SDS011;17384;51.214;9.202;2022-12-10T09:56:31;95.10;;;31.27;;
30617;SDS011;17384;51.214;9.202;2022-12-10T09:59:02;85.65;;;27.75;;
30617;SDS011;17384;51.214;9.202;2022-12-10T10:01:37;79.20;;;28.00;;
30617;SDS011;17384;51.214;9.202;2022-12-10T10:04:03;80.40;;;29.55;;
30617;SDS011;17384;51.214;9.202;2022-12-10T10:06:29;78.90;;;28.73;;
30617;SDS011;17384;51.214;9.202;2022-12-10T10:08:57;80.75;;;30.35;;
30617;SDS011;17384;51.214;9.202;2022-12-10T10:11:30;84.28;;;28.23;;
30617;SDS011;17384;51.214;9.202;2022-12-10T10:14:00;76.63;;;28.67;;
30617;SDS011;17384;51.214;9.202;2022-12-10T10:16:32;81.50;;;28.40;;
30617;SDS011;17384;51.214;9.202;2022-12-10T10:19:18;80.32;;;28.30;;
30617;SDS011;17384;51.214;9.202;2022-12-10T10:21:49;73.93;;;28.15;;
30617;SDS011;17384;51.214;9.202;2022-12-10T10:24:19;79.53;;;27.20;;
30617;SDS011;17384;51.214;9.202;2022-12-10T10:26:49;81.43;;;28.25;;
30617;SDS011;17384;51.214;9.202;2022-12-10T10:29:18;77.40;;;28.42;;
30617;SDS011;17384;51.214;9.202;2022-12-10T10:31:46;79.35;;;29.08;;
30617;SDS011;17384;51.214;9.202;2022-12-10T10:34:19;80.07;;;28.85;;
30617;SDS011;17384;51.214;9.202;2022-12-10T10:36:47;71.25;;;27.67;;
30617;SDS011;17384;51.214;9.202;2022-12-10T10:39:28;73.03;;;27.58;;
30617;SDS011;17384;51.214;9.202;2022-12-10T10:41:56;69.65;;;27.13;;
30617;SDS011;17384;51.214;9.202;2022-12-10T10:44:26;72.15;;;26.88;;
30617;SDS011;17384;51.214;9.202;2022-12-10T10:46:54;74.95;;;27.85;;
30617;SDS011;17384;51.214;9.202;2022-12-10T10:49:27;73.70;;;29.67;;
30617;SDS011;17384;51.214;9.202;2022-12-10T10:52:06;70.82;;;27.27;;
30617;SDS011;17384;51.214;9.202;2022-12-10T10:54:39;78.32;;;29.52;;
30617;SDS011;17384;51.214;9.202;2022-12-10T10:57:27;79.97;;;30.60;;
30617;SDS011;17384;51.214;9.202;2022-12-10T11:02:37;74.32;;;27.63;;
30617;SDS011;17384;51.214;9.202;2022-12-10T11:05:07;73.45;;;28.20;;
30617;SDS011;17384;51.214;9.202;2022-12-10T11:07:41;69.32;;;28.10;;
30617;SDS011;17384;51.214;9.202;2022-12-10T11:10:20;68.75;;;26.85;;
30617;SDS011;17384;51.214;9.202;2022-12-10T11:13:07;75.18;;;28.60;;
30617;SDS011;17384;51.214;9.202;2022-12-10T11:15:55;70.50;;;27.48;;
30617;SDS011;17384;51.214;9.202;2022-12-10T11:21:05;75.60;;;28.02;;
30617;SDS011;17384;51.214;9.202;2022-12-10T11:23:38;75.03;;;30.35;;
30617;SDS011;17384;51.214;9.202;2022-12-10T11:38:12;65.78;;;25.90;;
30617;SDS011;17384;51.214;9.202;2022-12-10T11:40:50;65.95;;;25.48;;
30617;SDS011;17384;51.214;9.202;2022-12-10T11:51:45;59.58;;;24.05;;
30617;SDS011;17384;51.214;9.202;2022-12-10T11:56:58;65.55;;;27.33;;
30617;SDS011;17384;51.214;9.202;2022-12-10T12:02:49;75.18;;;30.95;;
30617;SDS011;17384;51.214;9.202;2022-12-10T12:11:31;61.20;;;24.30;;
30617;SDS011;17384;51.214;9.202;2022-12-10T12:14:07;55.72;;;25.13;;
30617;SDS011;17384;51.214;9.202;2022-12-10T12:16:40;56.47;;;25.20;;
30617;SDS011;17384;51.214;9.202;2022-12-10T12:19:22;60.90;;;26.25;;
30617;SDS011;17384;51.214;9.202;2022-12-10T12:21:53;54.20;;;24.42;;
30617;SDS011;17384;51.214;9.202;2022-12-10T12:24:36;57.63;;;23.02;;
30617;SDS011;17384;51.214;9.202;2022-12-10T12:27:09;52.40;;;23.45;;
30617;SDS011;17384;51.214;9.202;2022-12-10T12:29:44;59.58;;;24.27;;
30617;SDS011;17384;51.214;9.202;2022-12-10T12:32:20;55.70;;;24.20;;
30617;SDS011;17384;51.214;9.202;2022-12-10T12:34:57;54.33;;;21.77;;
30617;SDS011;17384;51.214;9.202;2022-12-10T12:37:36;47.42;;;20.88;;
30617;SDS011;17384;51.214;9.202;2022-12-10T12:43:09;42.88;;;20.05;;
30617;SDS011;17384;51.214;9.202;2022-12-10T12:45:43;45.15;;;20.67;;
30617;SDS011;17384;51.214;9.202;2022-12-10T12:50:49;41.28;;;18.77;;
30617;SDS011;17384;51.214;9.202;2022-12-10T12:53:21;44.03;;;19.10;;
30617;SDS011;17384;51.214;9.202;2022-12-10T13:03:53;40.28;;;18.08;;
30617;SDS011;17384;51.214;9.202;2022-12-10T13:09:23;32.85;;;16.42;;
30617;SDS011;17384;51.214;9.202;2022-12-10T13:14:30;23.55;;;11.15;;
30617;SDS011;17384;51.214;9.202;2022-12-10T13:19:49;22.70;;;11.50;;
30617;SDS011;17384;51.214;9.202;2022-12-10T13:27:40;29.75;;;15.20;;
30617;SDS011;17384;51.214;9.202;2022-12-10T13:37:37;28.70;;;13.32;;
30617;SDS011;17384;51.214;9.202;2022-12-10T13:46:20;39.10;;;18.13;;
30617;SDS011;17384;51.214;9.202;2022-12-10T13:48:53;32.75;;;17.10;;
30617;SDS011;17384;51.214;9.202;2022-12-10T13:51:44;29.40;;;14.48;;
30617;SDS011;17384;51.214;9.202;2022-12-10T14:06:59;39.40;;;18.52;;
30617;SDS011;17384;51.214;9.202;2022-12-10T14:09:26;38.13;;;19.63;;
30617;SDS011;17384;51.214;9.202;2022-12-10T14:12:05;38.97;;;19.37;;
30617;SDS011;17384;51.214;9.202;2022-12-10T14:14:37;35.13;;;19.27;;
30617;SDS011;17384;51.214;9.202;2022-12-10T14:17:08;41.53;;;19.52;;
30617;SDS011;17384;51.214;9.202;2022-12-10T14:19:38;33.30;;;17.42;;
30617;SDS011;17384;51.214;9.202;2022-12-10T14:22:05;38.55;;;18.40;;
30617;SDS011;17384;51.214;9.202;2022-12-10T14:24:38;35.95;;;17.90;;
30617;SDS011;17384;51.214;9.202;2022-12-10T14:27:12;42.35;;;20.48;;
30617;SDS011;17384;51.214;9.202;2022-12-10T14:29:44;41.25;;;20.20;;
30617;SDS011;17384;51.214;9.202;2022-12-10T14:32:14;33.20;;;18.08;;
30617;SDS011;17384;51.214;9.202;2022-12-10T14:34:46;36.10;;;18.70;;
30617;SDS011;17384;51.214;9.202;2022-12-10T14:37:23;34.30;;;18.33;;
30617;SDS011;17384;51.214;9.202;2022-12-10T14:39:52;37.42;;;18.20;;
30617;SDS011;17384;51.214;9.202;2022-12-10T14:42:18;38.75;;;19.65;;
30617;SDS011;17384;51.214;9.202;2022-12-10T14:44:44;51.30;;;22.92;;
30617;SDS011;17384;51.214;9.202;2022-12-10T14:47:18;48.92;;;23.65;;
30617;SDS011;17384;51.214;9.202;2022-12-10T14:49:48;34.95;;;19.80;;
30617;SDS011;17384;51.214;9.202;2022-12-10T14:52:22;39.33;;;19.23;;
30617;SDS011;17384;51.214;9.202;2022-12-10T14:54:49;37.67;;;18.98;;
30617;SDS011;17384;51.214;9.202;2022-12-10T14:57:22;41.00;;;19.80;;
30617;SDS011;17384;51.214;9.202;2022-12-10T15:02:37;38.70;;;19.58;;
30617;SDS011;17384;51.214;9.202;2022-12-10T15:05:26;36.80;;;19.65;;
30617;SDS011;17384;51.214;9.202;2022-12-10T15:07:56;37.58;;;19.65;;
30617;SDS011;17384;51.214;9.202;2022-12-10T15:10:28;45.17;;;20.70;;
30617;SDS011;17384;51.214;9.202;2022-12-10T15:13:05;38.80;;;20.52;;
30617;SDS011;17384;51.214;9.202;2022-12-10T15:15:36;41.33;;;21.25;;
30617;SDS011;17384;51.214;9.202;2022-12-10T15:28:29;44.05;;;21.33;;
30617;SDS011;17384;51.214;9.202;2022-12-10T15:33:44;35.67;;;18.15;;
30617;SDS011;17384;51.214;9.202;2022-12-10T15:36:17;38.05;;;18.63;;
30617;SDS011;17384;51.214;9.202;2022-12-10T15:38:44;33.40;;;18.90;;
30617;SDS011;17384;51.214;9.202;2022-12-10T15:41:21;38.25;;;19.38;;
30617;SDS011;17384;51.214;9.202;2022-12-10T15:44:16;35.72;;;19.10;;
30617;SDS011;17384;51.214;9.202;2022-12-10T15:46:58;34.70;;;18.08;;
30617;SDS011;17384;51.214;9.202;2022-12-10T15:49:24;45.20;;;21.80;;
30617;SDS011;17384;51.214;9.202;2022-12-10T15:51:50;44.47;;;22.73;;
30617;SDS011;17384;51.214;9.202;2022-12-10T15:54:20;47.83;;;24.83;;
30617;SDS011;17384;51.214;9.202;2022-12-10T15:56:58;46.72;;;21.95;;
30617;SDS011;17384;51.214;9.202;2022-12-10T15:59:24;41.85;;;21.10;;
30617;SDS011;17384;51.214;9.202;2022-12-10T16:04:17;41.80;;;22.00;;
30617;SDS011;17384;51.214;9.202;2022-12-10T16:06:43;44.33;;;21.55;;
30617;SDS011;17384;51.214;9.202;2022-12-10T16:09:09;43.05;;;22.50;;
30617;SDS011;17384;51.214;9.202;2022-12-10T16:11:35;41.40;;;21.00;;
30617;SDS011;17384;51.214;9.202;2022-12-10T16:14:00;41.60;;;20.10;;
30617;SDS011;17384;51.214;9.202;2022-12-10T16:16:27;39.63;;;19.98;;
30617;SDS011;17384;51.214;9.202;2022-12-10T16:18:53;40.47;;;19.33;;
30617;SDS011;17384;51.214;9.202;2022-12-10T16:21:18;42.90;;;22.02;;
30617;SDS011;17384;51.214;9.202;2022-12-10T16:23:44;44.38;;;23.20;;
30617;SDS011;17384;51.214;9.202;2022-12-10T16:26:17;43.15;;;21.20;;
30617;SDS011;17384;51.214;9.202;2022-12-10T16:28:45;38.22;;;19.75;;
30617;SDS011;17384;51.214;9.202;2022-12-10T16:31:12;37.72;;;19.33;;
30617;SDS011;17384;51.214;9.202;2022-12-10T16:33:41;38.22;;;20.45;;
30617;SDS011;17384;51.214;9.202;2022-12-10T16:36:07;40.65;;;21.02;;
30617;SDS011;17384;51.214;9.202;2022-12-10T16:38:33;38.55;;;20.67;;
30617;SDS011;17384;51.214;9.202;2022-12-10T16:40:58;37.22;;;19.88;;
30617;SDS011;17384;51.214;9.202;2022-12-10T16:43:26;41.47;;;21.65;;
30617;SDS011;17384;51.214;9.202;2022-12-10T16:45:53;38.00;;;20.00;;
30617;SDS011;17384;51.214;9.202;2022-12-10T16:48:20;39.75;;;21.15;;
30617;SDS011;17384;51.214;9.202;2022-12-10T16:50:45;37.53;;;20.15;;
30617;SDS011;17384;51.214;9.202;2022-12-10T16:53:18;40.25;;;20.17;;